createdAt,value
2023-03-07T00:00:47.789Z,99681.41
2023-03-07T00:03:16.901Z,99677.22
2023-03-07T00:05:44.463Z,99678.22
2023-03-07T00:08:11.616Z,99673.28
2023-03-07T00:10:38.665Z,99675.88
2023-03-07T00:13:05.857Z,99669.69
2023-03-07T00:15:32.998Z,99678.47
2023-03-07T00:18:00.083Z,99677.66
2023-03-07T00:20:27.637Z,99680.19
2023-03-07T00:22:54.654Z,99679.19
2023-03-07T00:25:21.982Z,99679.19
2023-03-07T00:27:49.307Z,99673.22
2023-03-07T00:30:16.552Z,99687.78
2023-03-07T00:32:43.653Z,99681.03
2023-03-07T00:35:10.680Z,99679.38
2023-03-07T00:37:37.766Z,99679.38
2023-03-07T00:40:06.889Z,99672.41
2023-03-07T00:42:34.085Z,99648.31
2023-03-07T00:45:01.187Z,99658.78
2023-03-07T00:47:28.977Z,99663.00
2023-03-07T00:49:56.033Z,99670.66
2023-03-07T00:52:23.546Z,99661.44
2023-03-07T00:54:50.544Z,99652.81
2023-03-07T00:57:18.135Z,99667.44
2023-03-07T00:59:45.218Z,99675.13
2023-03-07T01:02:12.242Z,99687.88
2023-03-07T01:04:39.240Z,99682.50
2023-03-07T01:07:06.306Z,99693.16
2023-03-07T01:09:33.323Z,99678.41
2023-03-07T01:12:00.450Z,99687.84
2023-03-07T01:14:28.476Z,99675.06
2023-03-07T01:16:55.564Z,99671.59
2023-03-07T01:19:23.622Z,99675.75
2023-03-07T01:21:50.721Z,99661.03
2023-03-07T01:24:18.262Z,99665.50
2023-03-07T01:26:45.400Z,99665.41
2023-03-07T01:29:12.743Z,99658.44
2023-03-07T01:31:39.875Z,99664.38
2023-03-07T01:34:07.221Z,99645.53
2023-03-07T01:36:36.631Z,99658.38
2023-03-07T01:39:06.558Z,99644.50
2023-03-07T01:41:35.688Z,99656.63
2023-03-07T01:44:05.947Z,99658.38
2023-03-07T01:46:44.745Z,99657.41
2023-03-07T01:49:19.521Z,99640.13
2023-03-07T01:51:53.147Z,99644.44
2023-03-07T01:54:22.201Z,99639.22
2023-03-07T01:56:49.362Z,99638.56
2023-03-07T01:59:29.628Z,99631.78
2023-03-07T02:02:01.325Z,99640.16
2023-03-07T02:04:36.696Z,99635.16
2023-03-07T02:07:04.165Z,99628.06
2023-03-07T02:09:33.649Z,99639.25
2023-03-07T02:12:01.744Z,99632.50
2023-03-07T02:14:29.044Z,99638.50
2023-03-07T02:16:56.145Z,99629.81
2023-03-07T02:19:23.136Z,99626.44
2023-03-07T02:22:05.066Z,99624.69
2023-03-07T02:25:10.689Z,99628.91
2023-03-07T02:27:39.748Z,99623.84
2023-03-07T02:30:08.296Z,99616.16
2023-03-07T02:32:35.441Z,99602.44
2023-03-07T02:35:02.614Z,99614.47
2023-03-07T02:37:37.039Z,99614.41
2023-03-07T02:40:08.242Z,99602.50
2023-03-07T02:42:39.291Z,99597.31
2023-03-07T02:45:10.326Z,99600.00
2023-03-07T02:47:37.570Z,99604.09
2023-03-07T02:50:05.518Z,99612.94
2023-03-07T02:52:32.640Z,99595.75
2023-03-07T02:54:59.849Z,99600.84
2023-03-07T02:57:26.882Z,99609.44
2023-03-07T02:59:53.908Z,99598.38
2023-03-07T03:02:20.927Z,99587.00
2023-03-07T03:04:48.028Z,99598.31
2023-03-07T03:07:15.118Z,99591.53
2023-03-07T03:09:42.135Z,99587.91
2023-03-07T03:12:09.299Z,99594.75
2023-03-07T03:14:36.326Z,99586.06
2023-03-07T03:17:03.909Z,99586.13
2023-03-07T03:19:31.016Z,99593.94
2023-03-07T03:21:58.956Z,99587.00
2023-03-07T03:24:26.011Z,99588.88
2023-03-07T03:26:57.572Z,99592.25
2023-03-07T03:29:26.072Z,99587.34
2023-03-07T03:31:53.073Z,99583.03
2023-03-07T03:34:20.491Z,99576.22
2023-03-07T03:36:47.880Z,99566.69
2023-03-07T03:39:14.956Z,99577.84
2023-03-07T03:41:42.023Z,99576.16
2023-03-07T03:44:09.631Z,99569.31
2023-03-07T03:46:37.425Z,99575.38
2023-03-07T03:49:04.515Z,99571.03
2023-03-07T03:51:31.523Z,99575.38
2023-03-07T03:53:58.889Z,99583.03
2023-03-07T03:56:27.729Z,99575.53
2023-03-07T03:58:57.684Z,99573.81
2023-03-07T04:01:27.701Z,99582.31
2023-03-07T04:03:56.470Z,99564.13
2023-03-07T04:06:32.480Z,99563.47
2023-03-07T04:08:59.749Z,99575.44
2023-03-07T04:11:27.736Z,99572.97
2023-03-07T04:13:54.962Z,99577.44
2023-03-07T04:16:22.693Z,99572.31
2023-03-07T04:18:53.080Z,99557.53
2023-03-07T04:21:20.959Z,99562.91
2023-03-07T04:23:55.501Z,99571.53
2023-03-07T04:26:22.746Z,99564.72
2023-03-07T04:28:49.998Z,99564.63
2023-03-07T04:31:23.091Z,99546.47
2023-03-07T04:33:51.032Z,99560.34
2023-03-07T04:36:18.401Z,99558.59
2023-03-07T04:38:47.559Z,99551.75
2023-03-07T04:41:17.820Z,99538.78
2023-03-07T04:43:45.090Z,99529.22
2023-03-07T04:46:14.726Z,99545.66
2023-03-07T04:48:41.997Z,99546.22
2023-03-07T04:51:09.129Z,99544.56
2023-03-07T04:53:36.400Z,99534.03
2023-03-07T04:56:06.243Z,99540.94
2023-03-07T04:58:33.949Z,99545.25
2023-03-07T05:01:02.693Z,99530.56
2023-03-07T05:06:15.718Z,99540.91
2023-03-07T05:08:42.840Z,99547.91
2023-03-07T05:11:09.973Z,99534.09
2023-03-07T05:13:37.070Z,99533.94
2023-03-07T05:16:04.531Z,99545.75
2023-03-07T05:18:31.848Z,99551.00
2023-03-07T05:20:59.193Z,99552.53
2023-03-07T05:23:26.428Z,99558.00
2023-03-07T05:25:53.461Z,99560.72
2023-03-07T05:28:21.254Z,99550.69
2023-03-07T05:30:48.408Z,99536.59
2023-03-07T05:33:15.975Z,99540.13
2023-03-07T05:35:43.324Z,99548.31
2023-03-07T05:38:10.557Z,99544.72
2023-03-07T05:40:37.604Z,99534.09
2023-03-07T05:43:04.957Z,99564.94
2023-03-07T05:45:32.084Z,99558.19
2023-03-07T05:47:59.557Z,99560.00
2023-03-07T05:50:27.592Z,99562.41
2023-03-07T05:52:54.786Z,99565.88
2023-03-07T05:55:22.230Z,99561.63
2023-03-07T05:57:50.161Z,99565.31
2023-03-07T06:00:17.730Z,99581.53
2023-03-07T06:02:44.923Z,99574.63
2023-03-07T06:05:11.997Z,99581.38
2023-03-07T06:07:39.100Z,99575.16
2023-03-07T06:10:07.596Z,99576.00
2023-03-07T06:12:34.621Z,99588.53
2023-03-07T06:15:01.643Z,99584.75
2023-03-07T06:17:29.440Z,99590.63
2023-03-07T06:19:59.674Z,99575.38
2023-03-07T06:22:27.725Z,99603.88
2023-03-07T06:24:55.107Z,99590.59
2023-03-07T06:27:22.413Z,99583.25
2023-03-07T06:29:49.503Z,99581.31
2023-03-07T06:32:16.729Z,99588.97
2023-03-07T06:34:43.851Z,99588.66
2023-03-07T06:37:10.977Z,99566.34
2023-03-07T06:39:38.057Z,99576.97
2023-03-07T06:42:05.261Z,99573.47
2023-03-07T06:44:32.340Z,99582.06
2023-03-07T06:46:59.534Z,99596.22
2023-03-07T06:49:26.880Z,99601.88
2023-03-07T06:51:54.808Z,99598.59
2023-03-07T06:54:22.060Z,99601.91
2023-03-07T06:56:49.145Z,99611.41
2023-03-07T06:59:16.219Z,99609.72
2023-03-07T07:01:43.510Z,99605.22
2023-03-07T07:04:13.245Z,99597.31
2023-03-07T07:06:40.397Z,99599.91
2023-03-07T07:09:07.470Z,99600.06
2023-03-07T07:11:34.808Z,99609.47
2023-03-07T07:14:01.873Z,99594.09
2023-03-07T07:16:29.188Z,99602.66
2023-03-07T07:18:56.545Z,99607.78
2023-03-07T07:21:24.305Z,99597.78
2023-03-07T07:23:51.794Z,99588.31
2023-03-07T07:26:19.041Z,99578.88
2023-03-07T07:28:46.483Z,99579.91
2023-03-07T07:31:13.778Z,99587.56
2023-03-07T07:33:41.033Z,99589.50
2023-03-07T07:36:08.843Z,99592.09
2023-03-07T07:38:36.165Z,99578.16
2023-03-07T07:41:03.291Z,99570.75
2023-03-07T07:43:30.513Z,99581.22
2023-03-07T07:45:58.643Z,99599.06
2023-03-07T07:48:25.762Z,99584.53
2023-03-07T07:50:52.870Z,99592.44
2023-03-07T07:53:19.922Z,99597.66
2023-03-07T07:55:48.798Z,99594.81
2023-03-07T07:58:15.840Z,99591.88
2023-03-07T08:00:42.965Z,99600.47
2023-03-07T08:03:10.008Z,99595.25
2023-03-07T08:05:37.288Z,99594.44
2023-03-07T08:08:04.511Z,99607.69
2023-03-07T08:10:31.813Z,99597.75
2023-03-07T08:12:58.845Z,99611.25
2023-03-07T08:15:25.878Z,99608.84
2023-03-07T08:17:53.585Z,99603.75
2023-03-07T08:20:22.544Z,99611.59
2023-03-07T08:22:50.500Z,99619.38
2023-03-07T08:25:23.666Z,99609.38
2023-03-07T08:27:55.408Z,99601.34
2023-03-07T08:30:23.672Z,99608.75
2023-03-07T08:32:52.618Z,99619.16
2023-03-07T08:35:20.012Z,99624.28
2023-03-07T08:37:48.825Z,99610.88
2023-03-07T08:40:16.599Z,99623.00
2023-03-07T08:42:43.712Z,99626.19
2023-03-07T08:45:11.182Z,99622.72
2023-03-07T08:47:38.315Z,99622.72
2023-03-07T08:50:05.948Z,99621.28
2023-03-07T08:52:33.023Z,99615.59
2023-03-07T08:55:00.148Z,99610.13
2023-03-07T08:57:27.498Z,99607.00
2023-03-07T08:59:54.492Z,99603.91
2023-03-07T09:02:22.033Z,99615.09
2023-03-07T09:04:49.129Z,99622.03
2023-03-07T09:07:16.370Z,99607.13
2023-03-07T09:09:43.417Z,99615.13
2023-03-07T09:12:10.517Z,99615.09
2023-03-07T09:14:37.558Z,99609.06
2023-03-07T09:17:04.766Z,99614.41
2023-03-07T09:19:31.812Z,99621.94
2023-03-07T09:21:58.872Z,99605.09
2023-03-07T09:24:25.922Z,99602.88
2023-03-07T09:26:53.545Z,99605.00
2023-03-07T09:29:20.980Z,99608.03
2023-03-07T09:31:48.100Z,99596.03
2023-03-07T09:34:15.936Z,99597.94
2023-03-07T09:36:42.995Z,99615.03
2023-03-07T09:39:14.371Z,99613.28
2023-03-07T09:42:16.526Z,99613.06
2023-03-07T09:45:01.893Z,99614.16
2023-03-07T09:47:50.942Z,99609.00
2023-03-07T09:50:28.648Z,99618.34
2023-03-07T09:53:01.839Z,99609.28
2023-03-07T09:55:31.218Z,99619.69
2023-03-07T09:58:09.370Z,99604.50
2023-03-07T10:00:42.870Z,99612.19
2023-03-07T10:03:43.911Z,99618.13
2023-03-07T10:06:16.502Z,99613.19
2023-03-07T10:08:43.590Z,99606.78
2023-03-07T10:11:25.973Z,99622.25
2023-03-07T10:14:30.048Z,99617.44
2023-03-07T10:17:05.409Z,99625.44
2023-03-07T10:19:41.715Z,99627.13
2023-03-07T10:22:34.621Z,99622.72
2023-03-07T10:25:43.450Z,99626.16
2023-03-07T10:28:33.119Z,99624.25
2023-03-07T10:31:16.085Z,99628.41
2023-03-07T10:33:46.816Z,99623.97
2023-03-07T10:36:19.758Z,99626.50
2023-03-07T10:39:04.495Z,99630.75
2023-03-07T10:41:31.728Z,99628.09
2023-03-07T10:43:58.977Z,99629.16
2023-03-07T10:46:30.923Z,99632.09
2023-03-07T10:49:09.872Z,99630.97
2023-03-07T10:51:59.799Z,99630.41
2023-03-07T10:54:38.349Z,99634.41
2023-03-07T10:57:07.016Z,99632.94
2023-03-07T10:59:35.482Z,99631.03
2023-03-07T11:02:05.802Z,99641.34
2023-03-07T11:04:45.710Z,99631.78
2023-03-07T11:07:28.596Z,99634.03
2023-03-07T11:09:58.549Z,99641.25
2023-03-07T11:12:29.304Z,99641.00
2023-03-07T11:15:21.418Z,99650.22
2023-03-07T11:17:48.995Z,99648.44
2023-03-07T11:20:30.670Z,99662.00
2023-03-07T11:23:16.724Z,99654.84
2023-03-07T11:25:44.856Z,99672.31
2023-03-07T11:28:23.777Z,99667.16
2023-03-07T11:30:57.570Z,99670.38
2023-03-07T11:33:59.047Z,99669.38
2023-03-07T11:36:35.955Z,99659.63
2023-03-07T11:39:38.373Z,99673.50
2023-03-07T11:42:23.000Z,99671.06
2023-03-07T11:45:29.756Z,99662.94
2023-03-07T11:48:12.121Z,99657.56
2023-03-07T11:50:46.761Z,99666.88
2023-03-07T11:53:27.706Z,99660.81
2023-03-07T11:56:25.491Z,99659.19
2023-03-07T11:58:58.609Z,99662.94
2023-03-07T12:01:43.540Z,99665.00
2023-03-07T12:04:38.549Z,99655.19
2023-03-07T12:07:14.294Z,99660.47
2023-03-07T12:09:54.567Z,99668.06
2023-03-07T12:13:01.167Z,99663.47
2023-03-07T12:15:39.507Z,99659.50
2023-03-07T12:18:37.175Z,99655.28
2023-03-07T12:21:10.205Z,99667.34
2023-03-07T12:23:42.378Z,99668.75
2023-03-07T12:26:19.887Z,99672.72
2023-03-07T12:28:58.665Z,99663.47
2023-03-07T12:31:40.420Z,99658.47
2023-03-07T12:34:29.038Z,99668.13
2023-03-07T12:37:03.038Z,99648.81
2023-03-07T12:39:49.633Z,99657.41
2023-03-07T12:42:38.487Z,99657.50
2023-03-07T12:45:12.609Z,99659.22
2023-03-07T12:47:58.467Z,99661.97
2023-03-07T12:51:00.579Z,99661.94
2023-03-07T12:53:40.462Z,99662.25
2023-03-07T12:56:19.846Z,99658.16
2023-03-07T12:59:07.471Z,99668.53
2023-03-07T13:01:40.220Z,99662.09
2023-03-07T13:04:18.093Z,99664.16
2023-03-07T13:06:46.688Z,99666.81
2023-03-07T13:09:24.993Z,99666.44
2023-03-07T13:12:24.603Z,99664.22
2023-03-07T13:15:03.838Z,99663.53
2023-03-07T13:17:30.955Z,99666.34
2023-03-07T13:20:16.377Z,99673.84
2023-03-07T13:22:43.537Z,99662.69
2023-03-07T13:25:19.366Z,99662.66
2023-03-07T13:27:57.976Z,99660.03
2023-03-07T13:30:31.702Z,99666.03
2023-03-07T13:32:58.699Z,99660.38
2023-03-07T13:35:31.824Z,99672.31
2023-03-07T13:38:33.007Z,99677.31
2023-03-07T13:41:04.988Z,99666.94
2023-03-07T13:43:57.349Z,99668.38
2023-03-07T13:46:42.520Z,99665.38
2023-03-07T13:49:09.570Z,99676.00
2023-03-07T13:51:36.777Z,99673.63
2023-03-07T13:54:10.359Z,99676.25
2023-03-07T13:56:42.407Z,99663.25
2023-03-07T13:59:09.424Z,99691.53
2023-03-07T14:01:40.546Z,99676.94
2023-03-07T14:04:42.109Z,99682.31
2023-03-07T14:07:24.988Z,99691.69
2023-03-07T14:09:59.003Z,99693.16
2023-03-07T14:13:05.474Z,99685.41
2023-03-07T14:15:50.413Z,99687.72
2023-03-07T14:18:26.171Z,99698.31
2023-03-07T14:21:26.227Z,99703.25
2023-03-07T14:24:10.659Z,99706.34
2023-03-07T14:26:42.128Z,99703.72
2023-03-07T14:29:24.410Z,99706.16
2023-03-07T14:31:54.554Z,99704.41
2023-03-07T14:34:21.544Z,99701.97
2023-03-07T14:37:07.071Z,99704.94
2023-03-07T14:40:15.870Z,99702.66
2023-03-07T14:43:20.550Z,99704.03
2023-03-07T14:46:12.854Z,99709.59
2023-03-07T14:48:54.883Z,99705.38
2023-03-07T14:51:26.381Z,99716.28
2023-03-07T14:53:56.060Z,99714.75
2023-03-07T14:56:32.405Z,99710.72
2023-03-07T14:59:01.919Z,99719.72
2023-03-07T15:01:35.558Z,99722.03
2023-03-07T15:04:03.377Z,99714.59
2023-03-07T15:06:30.975Z,99711.59
2023-03-07T15:09:01.152Z,99728.66
2023-03-07T15:11:37.669Z,99720.25
2023-03-07T15:14:30.689Z,99717.78
2023-03-07T15:17:05.033Z,99716.94
2023-03-07T15:19:40.743Z,99705.97
2023-03-07T15:22:17.750Z,99701.16
2023-03-07T15:24:48.985Z,99706.38
2023-03-07T15:27:31.438Z,99713.41
2023-03-07T15:30:03.069Z,99708.34
2023-03-07T15:32:38.936Z,99716.34
2023-03-07T15:35:05.929Z,99711.16
2023-03-07T15:37:34.467Z,99696.88
2023-03-07T15:40:22.378Z,99719.91
2023-03-07T15:42:53.634Z,99705.09
2023-03-07T15:45:38.431Z,99706.72
2023-03-07T15:48:16.954Z,99701.56
2023-03-07T15:50:51.057Z,99710.97
2023-03-07T15:53:27.741Z,99711.84
2023-03-07T15:56:00.600Z,99715.03
2023-03-07T15:58:29.859Z,99714.06
2023-03-07T16:01:05.946Z,99717.50
2023-03-07T16:03:33.465Z,99713.91
2023-03-07T16:06:01.709Z,99714.66
2023-03-07T16:08:29.225Z,99716.47
2023-03-07T16:11:02.795Z,99708.59
2023-03-07T16:13:32.934Z,99716.44
2023-03-07T16:16:07.373Z,99718.94
2023-03-07T16:18:34.936Z,99721.38
2023-03-07T16:21:01.960Z,99724.06
2023-03-07T16:23:31.247Z,99714.81
2023-03-07T16:26:02.623Z,99725.06
2023-03-07T16:28:29.815Z,99730.00
2023-03-07T16:30:57.493Z,99725.47
2023-03-07T16:33:24.844Z,99720.75
2023-03-07T16:35:52.573Z,99732.63
2023-03-07T16:38:19.694Z,99732.69
2023-03-07T16:40:46.779Z,99737.06
2023-03-07T16:43:34.988Z,99741.88
2023-03-07T16:46:04.716Z,99753.81
2023-03-07T16:48:32.580Z,99737.47
2023-03-07T16:50:59.583Z,99751.16
2023-03-07T16:53:29.281Z,99743.88
2023-03-07T16:55:59.439Z,99748.88
2023-03-07T16:58:31.001Z,99740.84
2023-03-07T17:01:01.073Z,99751.81
2023-03-07T17:03:30.416Z,99763.88
2023-03-07T17:06:00.420Z,99753.94
2023-03-07T17:08:27.804Z,99755.66
2023-03-07T17:10:55.543Z,99752.84
2023-03-07T17:13:23.078Z,99770.78
2023-03-07T17:15:50.302Z,99782.44
2023-03-07T17:18:17.367Z,99773.19
2023-03-07T17:20:44.429Z,99785.19
2023-03-07T17:23:11.435Z,99786.97
2023-03-07T17:25:40.130Z,99792.03
2023-03-07T17:28:12.733Z,99816.75
2023-03-07T17:30:42.928Z,99819.25
2023-03-07T17:33:11.781Z,99817.09
2023-03-07T17:35:39.035Z,99831.59
2023-03-07T17:38:06.293Z,99828.41
2023-03-07T17:40:33.361Z,99822.47
2023-03-07T17:43:00.398Z,99830.44
2023-03-07T17:45:28.408Z,99830.25
2023-03-07T17:47:55.550Z,99827.63
2023-03-07T17:50:26.213Z,99839.50
2023-03-07T17:52:54.786Z,99840.44
2023-03-07T17:55:26.352Z,99838.09
2023-03-07T17:57:53.823Z,99845.28
2023-03-07T18:00:22.045Z,99826.50
2023-03-07T18:02:49.258Z,99843.78
2023-03-07T18:05:16.407Z,99842.78
2023-03-07T18:07:43.518Z,99844.59
2023-03-07T18:10:12.627Z,99849.53
2023-03-07T18:12:39.825Z,99847.88
2023-03-07T18:15:11.867Z,99842.34
2023-03-07T18:17:47.774Z,99847.88
2023-03-07T18:20:20.321Z,99847.81
2023-03-07T18:22:48.363Z,99859.66
2023-03-07T18:25:17.889Z,99862.97
2023-03-07T18:27:45.983Z,99866.31
2023-03-07T18:30:14.015Z,99866.38
2023-03-07T18:32:41.204Z,99866.19
2023-03-07T18:35:08.691Z,99867.06
2023-03-07T18:37:35.820Z,99852.56
2023-03-07T18:40:04.268Z,99856.00
2023-03-07T18:42:31.324Z,99863.66
2023-03-07T18:44:58.731Z,99860.97
2023-03-07T18:47:25.724Z,99861.97
2023-03-07T18:49:52.840Z,99861.16
2023-03-07T18:52:19.887Z,99859.34
2023-03-07T18:54:48.434Z,99848.03
2023-03-07T18:57:15.678Z,99853.16
2023-03-07T18:59:42.767Z,99859.06
2023-03-07T19:02:10.491Z,99863.97
2023-03-07T19:04:37.803Z,99860.28
2023-03-07T19:07:04.831Z,99867.13
2023-03-07T19:09:32.047Z,99863.63
2023-03-07T19:11:59.134Z,99873.81
2023-03-07T19:14:26.436Z,99874.59
2023-03-07T19:16:54.316Z,99873.69
2023-03-07T19:19:21.435Z,99880.59
2023-03-07T19:21:48.615Z,99883.13
2023-03-07T19:24:15.615Z,99881.34
2023-03-07T19:26:43.313Z,99873.28
2023-03-07T19:29:12.196Z,99891.41
2023-03-07T19:31:39.312Z,99871.38
2023-03-07T19:34:06.615Z,99890.41
2023-03-07T19:36:35.232Z,99897.94
2023-03-07T19:39:04.121Z,99901.34
2023-03-07T19:41:32.089Z,99899.53
2023-03-07T19:44:00.921Z,99902.66
2023-03-07T19:46:31.122Z,99908.47
2023-03-07T19:49:01.267Z,99903.13
2023-03-07T19:51:31.111Z,99910.66
2023-03-07T19:53:58.788Z,99915.03
2023-03-07T19:56:30.379Z,99917.59
2023-03-07T19:59:00.123Z,99911.41
2023-03-07T20:01:28.543Z,99914.72
2023-03-07T20:03:56.051Z,99916.56
2023-03-07T20:06:25.531Z,99916.56
2023-03-07T20:08:54.705Z,99904.56
2023-03-07T20:11:30.886Z,99904.66
2023-03-07T20:14:00.317Z,99914.88
2023-03-07T20:16:31.464Z,99909.81
2023-03-07T20:19:04.185Z,99913.41
2023-03-07T20:21:32.998Z,99908.47
2023-03-07T20:24:00.252Z,99916.31
2023-03-07T20:26:36.439Z,99914.00
2023-03-07T20:29:05.619Z,99918.34
2023-03-07T20:31:33.186Z,99916.75
2023-03-07T20:34:00.388Z,99916.81
2023-03-07T20:36:30.192Z,99919.78
2023-03-07T20:38:59.803Z,99920.78
2023-03-07T20:41:32.307Z,99926.47
2023-03-07T20:44:04.678Z,99921.09
2023-03-07T20:46:32.746Z,99920.31
2023-03-07T20:49:01.588Z,99933.69
2023-03-07T20:51:31.855Z,99936.22
2023-03-07T20:54:11.823Z,99923.28
2023-03-07T20:56:39.641Z,99925.91
2023-03-07T20:59:07.695Z,99926.44
2023-03-07T21:01:35.543Z,99928.91
2023-03-07T21:04:07.938Z,99921.00
2023-03-07T21:06:36.542Z,99917.22
2023-03-07T21:09:07.997Z,99907.34
2023-03-07T21:11:36.975Z,99924.34
2023-03-07T21:14:04.216Z,99919.94
2023-03-07T21:16:31.639Z,99917.75
2023-03-07T21:19:01.619Z,99941.81
2023-03-07T21:21:30.310Z,99939.16
2023-03-07T21:23:58.458Z,99939.03
2023-03-07T21:26:28.608Z,99936.50
2023-03-07T21:28:57.450Z,99907.94
2023-03-07T21:31:29.684Z,99940.78
2023-03-07T21:34:00.436Z,99934.03
2023-03-07T21:36:29.318Z,99942.38
2023-03-07T21:38:56.361Z,99944.19
2023-03-07T21:41:25.160Z,99955.16
2023-03-07T21:43:54.319Z,99943.81
2023-03-07T21:46:21.978Z,99951.59
2023-03-07T21:48:49.340Z,99947.31
2023-03-07T21:51:16.663Z,99949.78
2023-03-07T21:53:43.911Z,99953.91
2023-03-07T21:56:13.515Z,99945.94
2023-03-07T21:58:40.831Z,99960.41
2023-03-07T22:01:12.963Z,99968.94
2023-03-07T22:03:40.623Z,99963.97
2023-03-07T22:06:09.762Z,99958.66
2023-03-07T22:08:37.214Z,99959.44
2023-03-07T22:11:06.921Z,99953.41
2023-03-07T22:13:36.193Z,99960.88
2023-03-07T22:16:06.122Z,99953.75
2023-03-07T22:18:33.237Z,99969.22
2023-03-07T22:21:05.827Z,99958.53
2023-03-07T22:23:32.880Z,99960.34
2023-03-07T22:26:04.220Z,99972.91
2023-03-07T22:28:31.353Z,99976.19
2023-03-07T22:31:03.602Z,99975.28
2023-03-07T22:33:31.215Z,99966.81
2023-03-07T22:36:00.762Z,99975.28
2023-03-07T22:38:29.157Z,99969.19
2023-03-07T22:41:03.423Z,99961.63
2023-03-07T22:43:32.152Z,99968.41
2023-03-07T22:45:59.671Z,99977.78
2023-03-07T22:48:28.798Z,99981.03
2023-03-07T22:50:56.239Z,99976.34
2023-03-07T22:53:26.679Z,99984.06
2023-03-07T22:55:54.827Z,99978.75
2023-03-07T22:58:22.063Z,99972.66
2023-03-07T23:00:49.155Z,99973.50
2023-03-07T23:03:16.296Z,99977.72
2023-03-07T23:05:44.278Z,99979.31
2023-03-07T23:08:11.387Z,99979.25
2023-03-07T23:10:38.966Z,99976.69
2023-03-07T23:13:06.178Z,99976.53
2023-03-07T23:15:33.314Z,99977.50
2023-03-07T23:18:00.457Z,99978.28
2023-03-07T23:20:28.924Z,99968.97
2023-03-07T23:22:56.002Z,99960.25
2023-03-07T23:25:23.140Z,99967.31
2023-03-07T23:27:50.288Z,99968.84
2023-03-07T23:30:17.835Z,99971.44
2023-03-07T23:32:45.058Z,99973.91
2023-03-07T23:35:12.622Z,99967.94
2023-03-07T23:37:42.451Z,99968.69
2023-03-07T23:40:11.946Z,99966.78
2023-03-07T23:42:39.249Z,99971.31
2023-03-07T23:45:06.694Z,99951.38
2023-03-07T23:47:34.319Z,99967.81
2023-03-07T23:50:01.327Z,99971.16
2023-03-07T23:52:28.914Z,99965.66
2023-03-07T23:54:56.027Z,99965.59
2023-03-07T23:57:23.057Z,99960.03
2023-03-07T23:59:50.126Z,99957.97
